Aviation Digital Data Service (ADDS)

Output produced by METARs form (0503 UTC 21 September 2017)
found at http://www.aviationweather.gov/adds/metars/
 
FMMI 210500Z VRB02KT 9999 SCT020 16/13 Q1025 NOSIG
TAF FMMI 210500Z 2106/2212 VRB03KT 9999 SCT017 SCT020 
     BECMG 2107/2110 10010KT 
     BECMG 2118/2121 VRB04KT 
     PROB30 
     TEMPO 2118/2205 4000 DZRA
       
TAF FMNA 210500Z 2106/2206 14015G25KT 9999 SCT020 SCT040
       
FMNM 210400Z 10008KT CAVOK 24/16 Q1017 NOSIG
TAF FMNM 210500Z 2106/2206 10010KT 9999 FEW020 SCT040 
     BECMG 2108/2110 30010KT 
     BECMG 2118/2121 VRB04KT 
     BECMG 2200/2203 08010KT
       
FMNN 210400Z 20002KT 9999 FEW020 21/20 Q1017
TAF FMNN 210500Z 2106/2206 20005KT 9999 SCT020 SCT040 
     BECMG 2108/2110 26010KT 
     PROB30 
     TEMPO 2115/2203 4000 SHRA 
     BECMG 2115/2118 20005KT
       
TAF FMMS 210500Z 2106/2206 16012KT 9999 SCT017 BKN033 
     PROB30 
     TEMPO 2115/2206 4000 SHRA
       
FMMT 210400Z 24002KT 9999 FEW017 BKN033 21/20 Q1020 NOSIG
TAF FMMT 210500Z 2106/2206 16010KT 9999 SCT017 BKN033 
     PROB30 
     TEMPO 2106/2109 4000 SHRA 
     PROB40 
     TEMPO 2115/2206 4000 SHRA 
     BECMG 2118/2121 VRB04KT
       
FMSD 210400Z 08006KT 9999 FEW020 22/20 Q1018
TAF FMSD 210500Z 2106/2206 06010KT 9999 SCT016 BKN033 
     PROB40 
     TEMPO 2109/2206 06015G30KT 4000 SHRA
       
TAF FMST 210500Z 2106/2206 22015G30KT 9999 FEW023 
     BECMG 2118/2121 16010KT